createdAt,value
2022-11-24T00:02:13.401Z,6.00
2022-11-24T00:04:40.892Z,6.10
2022-11-24T00:07:09.577Z,5.77
2022-11-24T00:09:36.784Z,5.50
2022-11-24T00:12:04.406Z,6.10
2022-11-24T00:14:31.980Z,5.60
2022-11-24T00:16:59.514Z,5.50
2022-11-24T00:19:26.797Z,5.57
2022-11-24T00:21:53.992Z,6.50
2022-11-24T00:24:22.616Z,6.40
2022-11-24T00:26:49.858Z,5.60
2022-11-24T00:29:17.083Z,5.53
2022-11-24T00:31:44.255Z,5.80
2022-11-24T00:34:13.788Z,5.60
2022-11-24T00:36:41.856Z,6.07
2022-11-24T00:39:12.183Z,6.17
2022-11-24T00:41:41.376Z,5.90
2022-11-24T00:44:09.250Z,5.90
2022-11-24T00:46:36.565Z,6.10
2022-11-24T00:49:04.363Z,5.90
2022-11-24T00:51:31.844Z,6.40
2022-11-24T00:54:00.746Z,6.20
2022-11-24T00:56:29.486Z,6.00
2022-11-24T00:58:58.119Z,6.70
2022-11-24T01:01:27.291Z,7.07
2022-11-24T01:03:54.848Z,6.60
2022-11-24T01:06:24.144Z,6.13
2022-11-24T01:08:51.709Z,7.00
2022-11-24T01:11:21.394Z,7.10
2022-11-24T01:13:49.909Z,7.60
2022-11-24T01:16:21.583Z,6.90
2022-11-24T01:18:49.481Z,8.20
2022-11-24T01:21:17.827Z,6.90
2022-11-24T01:23:45.026Z,7.07
2022-11-24T01:26:14.788Z,8.80
2022-11-24T01:28:47.076Z,7.87
2022-11-24T01:31:15.796Z,7.60
2022-11-24T01:33:44.438Z,7.27
2022-11-24T01:36:12.100Z,8.97
2022-11-24T01:38:39.438Z,9.00
2022-11-24T01:41:09.872Z,8.40
2022-11-24T01:43:37.507Z,8.00
2022-11-24T01:46:12.672Z,8.67
2022-11-24T01:48:43.457Z,8.47
2022-11-24T01:51:16.386Z,9.13
2022-11-24T01:53:48.942Z,8.10
2022-11-24T01:56:16.299Z,8.17
2022-11-24T01:58:45.753Z,7.83
2022-11-24T02:01:13.638Z,9.80
2022-11-24T02:03:43.802Z,10.33
2022-11-24T02:06:16.761Z,8.90
2022-11-24T02:08:56.707Z,9.00
2022-11-24T02:11:27.956Z,8.90
2022-11-24T02:13:57.070Z,8.30
2022-11-24T02:16:24.315Z,9.97
2022-11-24T02:18:51.866Z,9.40
2022-11-24T02:21:20.567Z,9.80
2022-11-24T02:23:54.839Z,10.20
2022-11-24T02:26:38.857Z,8.83
2022-11-24T02:29:06.224Z,9.60
2022-11-24T02:31:33.877Z,10.10
2022-11-24T02:34:01.309Z,9.87
2022-11-24T02:36:28.604Z,8.70
2022-11-24T02:38:55.818Z,9.80
2022-11-24T02:41:26.874Z,9.17
2022-11-24T02:43:58.262Z,10.80
2022-11-24T02:46:25.767Z,8.93
2022-11-24T02:48:53.261Z,10.13
2022-11-24T02:51:20.458Z,10.80
2022-11-24T02:53:47.691Z,9.60
2022-11-24T02:56:14.906Z,10.30
2022-11-24T02:58:42.171Z,10.20
2022-11-24T03:01:10.749Z,9.47
2022-11-24T03:03:38.382Z,10.30
2022-11-24T03:06:05.893Z,9.47
2022-11-24T03:08:33.233Z,9.87
2022-11-24T03:11:01.647Z,10.97
2022-11-24T03:13:29.012Z,9.20
2022-11-24T03:15:56.244Z,10.33
2022-11-24T03:18:24.838Z,9.87
2022-11-24T03:20:52.034Z,9.93
2022-11-24T03:23:19.213Z,11.03
2022-11-24T03:25:46.381Z,10.40
2022-11-24T03:28:13.624Z,10.30
2022-11-24T03:30:40.923Z,10.73
2022-11-24T03:33:08.243Z,10.80
2022-11-24T03:35:36.884Z,12.27
2022-11-24T03:38:04.053Z,11.03
2022-11-24T03:40:31.257Z,11.30
2022-11-24T03:42:58.509Z,10.83
2022-11-24T03:48:13.248Z,10.73
2022-11-24T03:50:41.866Z,10.40
2022-11-24T03:53:09.426Z,11.60
2022-11-24T03:55:36.630Z,10.63
2022-11-24T03:58:03.828Z,10.50
2022-11-24T04:00:31.037Z,9.10
2022-11-24T04:02:58.341Z,12.40
2022-11-24T04:05:25.558Z,11.53
2022-11-24T04:07:56.805Z,10.40
2022-11-24T04:10:24.346Z,10.90
2022-11-24T04:12:51.601Z,10.83
2022-11-24T04:15:19.651Z,10.70
2022-11-24T04:17:49.178Z,12.20
2022-11-24T04:20:17.275Z,12.60
2022-11-24T04:22:44.573Z,11.33
2022-11-24T04:25:13.231Z,12.40
2022-11-24T04:27:40.426Z,11.30
2022-11-24T04:30:08.547Z,13.27
2022-11-24T04:32:35.732Z,11.60
2022-11-24T04:35:03.828Z,12.67
2022-11-24T04:37:31.124Z,11.00
2022-11-24T04:39:58.348Z,11.60
2022-11-24T04:42:26.907Z,11.50
2022-11-24T04:44:54.107Z,10.27
2022-11-24T04:47:23.948Z,11.20
2022-11-24T04:49:52.992Z,12.10
2022-11-24T04:52:22.374Z,11.80
2022-11-24T04:54:50.341Z,11.60
2022-11-24T04:57:18.984Z,11.20
2022-11-24T04:59:48.466Z,13.10
2022-11-24T05:02:15.627Z,12.17
2022-11-24T05:04:42.944Z,11.30
2022-11-24T05:07:16.445Z,11.07
2022-11-24T05:09:58.855Z,11.60
2022-11-24T05:12:27.644Z,12.40
2022-11-24T05:14:56.408Z,12.50
2022-11-24T05:17:23.629Z,12.43
2022-11-24T05:19:50.843Z,12.40
2022-11-24T05:22:18.056Z,12.87
2022-11-24T05:24:45.272Z,16.20
2022-11-24T05:27:12.596Z,11.77
2022-11-24T05:29:39.817Z,15.03
2022-11-24T05:32:08.432Z,11.20
2022-11-24T05:34:35.956Z,11.83
2022-11-24T05:37:03.425Z,12.93
2022-11-24T05:39:31.520Z,11.23
2022-11-24T05:41:59.171Z,13.00
2022-11-24T05:44:26.386Z,13.00
2022-11-24T05:46:53.617Z,11.60
2022-11-24T05:49:22.324Z,11.20
2022-11-24T05:51:49.624Z,11.97
2022-11-24T05:54:16.983Z,13.20
2022-11-24T05:56:44.230Z,11.07
2022-11-24T05:59:11.419Z,12.57
2022-11-24T06:01:38.746Z,13.37
2022-11-24T06:04:06.037Z,11.77
2022-11-24T06:06:34.625Z,12.00
2022-11-24T06:09:01.829Z,11.93
2022-11-24T06:11:29.050Z,13.10
2022-11-24T06:13:56.417Z,13.10
2022-11-24T06:16:24.167Z,118.63
2022-11-24T06:18:51.493Z,13.50
2022-11-24T06:21:18.785Z,13.73
2022-11-24T06:23:49.063Z,13.00
2022-11-24T06:26:16.278Z,13.03
2022-11-24T06:28:43.601Z,12.70
2022-11-24T06:31:11.282Z,11.37
2022-11-24T06:33:39.001Z,10.13
2022-11-24T06:36:09.700Z,10.83
2022-11-24T06:38:36.976Z,12.57
2022-11-24T06:41:08.007Z,12.80
2022-11-24T06:43:36.193Z,11.97
2022-11-24T06:46:04.213Z,12.70
2022-11-24T06:48:31.863Z,11.63
2022-11-24T06:50:59.940Z,13.47
2022-11-24T06:53:30.313Z,12.17
2022-11-24T06:55:58.716Z,11.50
2022-11-24T06:58:27.703Z,11.83
2022-11-24T07:00:55.001Z,11.37
2022-11-24T07:03:22.467Z,11.33
2022-11-24T07:05:49.775Z,13.03
2022-11-24T07:08:18.096Z,11.83
2022-11-24T07:10:45.536Z,10.73
2022-11-24T07:13:12.777Z,12.40
2022-11-24T07:15:41.458Z,11.73
2022-11-24T07:18:08.637Z,12.63
2022-11-24T07:20:36.028Z,12.37
2022-11-24T07:23:03.489Z,8.50
2022-11-24T07:25:30.682Z,10.33
2022-11-24T07:27:58.149Z,17.97
2022-11-24T07:30:25.890Z,12.00
2022-11-24T07:32:58.884Z,11.97
2022-11-24T07:35:26.352Z,11.00
2022-11-24T07:37:54.791Z,10.77
2022-11-24T07:40:22.249Z,11.93
2022-11-24T07:42:49.620Z,14.87
2022-11-24T07:45:16.939Z,12.50
2022-11-24T07:47:44.186Z,10.70
2022-11-24T07:50:13.209Z,11.93
2022-11-24T07:52:40.621Z,12.77
2022-11-24T07:55:08.943Z,10.50
2022-11-24T07:57:36.400Z,10.00
2022-11-24T08:00:05.325Z,12.20
2022-11-24T08:02:33.094Z,12.00
2022-11-24T08:05:00.315Z,11.13
2022-11-24T08:07:28.961Z,11.20
2022-11-24T08:09:56.238Z,9.50
2022-11-24T08:12:23.509Z,9.43
2022-11-24T08:14:51.222Z,10.83
2022-11-24T08:17:18.772Z,10.93
2022-11-24T08:19:46.367Z,10.53
2022-11-24T08:22:13.651Z,13.53
2022-11-24T08:24:42.521Z,10.87
2022-11-24T08:27:09.676Z,13.30
2022-11-24T08:29:36.933Z,10.30
2022-11-24T08:32:04.657Z,9.93
2022-11-24T08:34:32.107Z,9.73
2022-11-24T08:36:59.743Z,8.60
2022-11-24T08:39:26.929Z,9.67
2022-11-24T08:41:55.576Z,8.47
2022-11-24T08:44:23.078Z,9.13
2022-11-24T08:46:50.462Z,9.30
2022-11-24T08:49:17.845Z,10.60
2022-11-24T08:51:45.073Z,10.07
2022-11-24T08:54:12.321Z,10.47
2022-11-24T08:56:39.642Z,9.50
2022-11-24T08:59:08.284Z,9.80
2022-11-24T09:01:35.673Z,10.53
2022-11-24T09:04:03.208Z,8.63
2022-11-24T09:06:30.548Z,9.30
2022-11-24T09:08:58.695Z,9.10
2022-11-24T09:11:26.663Z,8.70
2022-11-24T09:13:54.696Z,11.07
2022-11-24T09:16:25.566Z,8.97
2022-11-24T09:18:56.630Z,9.10
2022-11-24T09:21:24.014Z,8.80
2022-11-24T09:23:52.700Z,8.17
2022-11-24T09:26:22.059Z,8.57
2022-11-24T09:28:50.104Z,7.33
2022-11-24T09:31:18.109Z,8.53
2022-11-24T09:33:47.116Z,10.73
2022-11-24T09:36:15.164Z,6.93
2022-11-24T09:38:42.418Z,8.63
2022-11-24T09:41:38.258Z,5.53
2022-11-24T09:44:11.323Z,5.70
2022-11-24T09:46:48.390Z,5.13
2022-11-24T09:49:29.590Z,6.17
2022-11-24T09:51:58.220Z,4.63
2022-11-24T09:54:29.761Z,4.30
2022-11-24T09:57:00.548Z,4.83
2022-11-24T09:59:28.454Z,4.97
2022-11-24T10:01:55.900Z,4.97
2022-11-24T10:04:29.217Z,5.50
2022-11-24T10:07:07.162Z,24.93
2022-11-24T10:09:52.217Z,4.80
2022-11-24T10:12:41.009Z,4.90
2022-11-24T10:15:30.814Z,5.60
2022-11-24T10:18:16.715Z,4.13
2022-11-24T10:20:58.510Z,3.77
2022-11-24T10:23:41.237Z,4.60
2022-11-24T10:26:18.067Z,4.97
2022-11-24T10:28:51.565Z,3.70
2022-11-24T10:31:24.891Z,4.40
2022-11-24T10:33:52.317Z,4.80
2022-11-24T10:36:28.178Z,3.90
2022-11-24T10:39:03.297Z,4.00
2022-11-24T10:41:42.703Z,4.57
2022-11-24T10:44:13.509Z,4.30
2022-11-24T10:46:41.182Z,4.20
2022-11-24T10:49:17.837Z,4.60
2022-11-24T10:51:58.858Z,3.83
2022-11-24T10:54:26.104Z,4.80
2022-11-24T10:56:54.765Z,4.47
2022-11-24T10:59:30.707Z,4.70
2022-11-24T11:01:58.837Z,4.60
2022-11-24T11:04:27.849Z,4.37
2022-11-24T11:07:17.784Z,4.73
2022-11-24T11:09:45.294Z,4.13
2022-11-24T11:12:42.897Z,6.97
2022-11-24T11:15:27.264Z,4.00
2022-11-24T11:17:58.194Z,4.30
2022-11-24T11:20:29.886Z,4.60
2022-11-24T11:23:01.493Z,4.10
2022-11-24T11:25:32.547Z,5.03
2022-11-24T11:28:21.685Z,4.47
2022-11-24T11:34:16.025Z,4.50
2022-11-24T11:36:45.067Z,5.10
2022-11-24T11:39:23.726Z,4.87
2022-11-24T11:41:56.676Z,3.90
2022-11-24T11:44:32.589Z,4.47
2022-11-24T11:47:09.133Z,6.07
2022-11-24T11:49:38.829Z,3.60
2022-11-24T11:52:27.795Z,4.53
2022-11-24T11:55:27.536Z,4.90
2022-11-24T11:58:07.258Z,5.27
2022-11-24T12:00:39.409Z,4.80
2022-11-24T12:03:42.616Z,5.63
2022-11-24T12:06:24.406Z,6.07
2022-11-24T12:09:19.862Z,5.50
2022-11-24T12:12:03.319Z,4.83
2022-11-24T12:14:44.042Z,5.33
2022-11-24T12:17:21.149Z,5.90
2022-11-24T12:20:03.189Z,15.83
2022-11-24T12:22:40.139Z,5.90
2022-11-24T12:25:22.728Z,5.50
2022-11-24T12:28:01.228Z,5.60
2022-11-24T12:30:37.917Z,6.23
2022-11-24T12:33:20.319Z,5.60
2022-11-24T12:35:52.583Z,5.70
2022-11-24T12:38:31.016Z,6.30
2022-11-24T12:41:40.518Z,6.40
2022-11-24T12:44:19.276Z,9.03
2022-11-24T12:46:56.978Z,5.87
2022-11-24T12:49:33.890Z,6.03
2022-11-24T12:52:05.551Z,6.13
2022-11-24T12:54:39.751Z,5.67
2022-11-24T12:57:13.158Z,5.30
2022-11-24T12:59:51.382Z,5.03
2022-11-24T13:02:30.763Z,6.20
2022-11-24T13:05:08.316Z,5.60
2022-11-24T13:07:43.651Z,5.80
2022-11-24T13:10:54.831Z,5.43
2022-11-24T13:13:26.057Z,4.90
2022-11-24T13:19:09.129Z,4.87
2022-11-24T13:21:59.445Z,5.93
2022-11-24T13:24:28.596Z,5.23
2022-11-24T13:27:25.442Z,4.67
2022-11-24T13:29:53.434Z,4.53
2022-11-24T13:32:59.379Z,5.90
2022-11-24T13:35:28.885Z,5.10
2022-11-24T13:37:56.161Z,5.40
2022-11-24T13:40:41.023Z,5.07
2022-11-24T13:43:20.753Z,5.10
2022-11-24T13:45:49.165Z,4.50
2022-11-24T13:48:49.493Z,5.40
2022-11-24T13:51:23.390Z,5.20
2022-11-24T13:53:52.703Z,5.50
2022-11-24T13:56:24.535Z,5.70
2022-11-24T13:58:55.253Z,4.23
2022-11-24T14:01:24.345Z,4.77
2022-11-24T14:06:54.189Z,4.33
2022-11-24T14:09:26.694Z,5.23
2022-11-24T14:11:59.884Z,3.83
2022-11-24T14:14:27.548Z,4.50
2022-11-24T14:17:12.518Z,4.40
2022-11-24T14:19:39.921Z,4.30
2022-11-24T14:22:15.739Z,4.57
2022-11-24T14:24:43.804Z,4.90
2022-11-24T14:27:15.213Z,5.03
2022-11-24T14:29:54.451Z,5.20
2022-11-24T14:32:21.855Z,4.90
2022-11-24T14:34:49.308Z,4.90
2022-11-24T14:37:18.421Z,5.43
2022-11-24T14:39:45.922Z,4.70
2022-11-24T14:42:18.328Z,4.03
2022-11-24T14:44:49.284Z,4.00
2022-11-24T14:47:30.468Z,3.60
2022-11-24T14:50:08.184Z,3.87
2022-11-24T14:52:44.651Z,4.13
2022-11-24T14:55:24.880Z,5.40
2022-11-24T14:57:52.298Z,5.10
2022-11-24T15:00:26.884Z,5.10
2022-11-24T15:02:56.059Z,5.47
2022-11-24T15:05:25.398Z,5.37
2022-11-24T15:08:02.449Z,5.13
2022-11-24T15:10:34.943Z,5.80
2022-11-24T15:13:05.203Z,5.80
2022-11-24T15:15:35.252Z,5.90
2022-11-24T15:18:04.493Z,5.60
2022-11-24T15:20:33.896Z,5.90
2022-11-24T15:23:25.146Z,6.50
2022-11-24T15:25:53.341Z,5.60
2022-11-24T15:28:20.810Z,6.17
2022-11-24T15:30:48.017Z,5.93
2022-11-24T15:33:17.226Z,6.07
2022-11-24T15:35:45.164Z,6.53
2022-11-24T15:38:12.740Z,6.47
2022-11-24T15:40:43.880Z,7.13
2022-11-24T15:43:28.378Z,7.33
2022-11-24T15:45:56.004Z,6.97
2022-11-24T15:48:23.455Z,6.80
2022-11-24T15:50:51.862Z,8.40
2022-11-24T15:53:21.318Z,5.63
2022-11-24T15:55:50.563Z,7.13
2022-11-24T15:58:18.378Z,6.63
2022-11-24T16:00:45.909Z,7.80
2022-11-24T16:03:44.944Z,8.23
2022-11-24T16:06:00.905Z,15.40
2022-11-24T16:08:28.117Z,15.77
2022-11-24T16:10:56.740Z,14.77
2022-11-24T16:13:24.124Z,9.80
2022-11-24T16:15:51.441Z,10.50
2022-11-24T16:18:18.719Z,10.47
2022-11-24T16:20:45.952Z,16.80
2022-11-24T16:23:13.299Z,8.93
2022-11-24T16:25:40.538Z,8.73
2022-11-24T16:28:09.139Z,10.50
2022-11-24T16:30:36.393Z,10.50
2022-11-24T16:33:03.942Z,10.50
2022-11-24T16:35:31.190Z,9.90
2022-11-24T16:37:58.484Z,9.73
2022-11-24T16:40:25.991Z,12.17
2022-11-24T16:42:53.211Z,9.53
2022-11-24T16:45:24.702Z,10.40
2022-11-24T16:47:51.984Z,11.40
2022-11-24T16:50:19.187Z,10.77
2022-11-24T16:52:46.441Z,10.30
2022-11-24T16:55:13.634Z,11.33
2022-11-24T16:57:40.922Z,11.37
2022-11-24T17:00:09.581Z,13.00
2022-11-24T17:02:38.328Z,11.27
2022-11-24T17:05:06.406Z,12.07
2022-11-24T17:07:33.723Z,10.40
2022-11-24T17:10:00.926Z,11.47
2022-11-24T17:12:28.219Z,11.87
2022-11-24T17:15:24.492Z,12.47
2022-11-24T17:18:08.376Z,11.50
2022-11-24T17:20:31.381Z,12.20
2022-11-24T17:22:58.668Z,12.57
2022-11-24T17:25:25.860Z,13.83
2022-11-24T17:27:53.469Z,12.60
2022-11-24T17:30:20.785Z,13.23
2022-11-24T17:32:53.648Z,14.47
2022-11-24T17:35:23.945Z,13.80
2022-11-24T17:37:51.175Z,13.53
2022-11-24T17:40:28.352Z,15.27
2022-11-24T17:42:58.019Z,16.27
2022-11-24T17:45:25.504Z,16.10
2022-11-24T17:47:54.862Z,15.53
2022-11-24T17:50:25.699Z,17.10
2022-11-24T17:52:53.954Z,17.00
2022-11-24T17:55:21.505Z,15.60
2022-11-24T17:57:48.673Z,14.67
2022-11-24T18:00:16.740Z,15.20
2022-11-24T18:02:43.929Z,15.53
2022-11-24T18:05:12.470Z,24.23
2022-11-24T18:07:39.707Z,17.57
2022-11-24T18:10:07.736Z,18.20
2022-11-24T18:12:34.981Z,17.80
2022-11-24T18:15:02.276Z,16.63
2022-11-24T18:17:29.605Z,20.23
2022-11-24T18:19:56.790Z,20.57
2022-11-24T18:22:50.092Z,18.60
2022-11-24T18:25:12.838Z,17.50
2022-11-24T18:27:40.036Z,15.87
2022-11-24T18:30:08.317Z,15.77
2022-11-24T18:32:35.596Z,15.90
2022-11-24T18:35:02.866Z,15.30
2022-11-24T18:37:31.660Z,17.03
2022-11-24T18:39:59.024Z,17.03
2022-11-24T18:42:26.788Z,17.37
2022-11-24T18:44:54.396Z,17.90
2022-11-24T18:47:21.985Z,18.37
2022-11-24T18:49:49.201Z,15.77
2022-11-24T18:52:16.458Z,17.23
2022-11-24T18:54:45.009Z,18.10
2022-11-24T18:57:12.204Z,18.30
2022-11-24T18:59:39.489Z,17.93
2022-11-24T19:02:06.723Z,17.90
2022-11-24T19:04:34.112Z,16.73
2022-11-24T19:07:01.659Z,18.00
2022-11-24T19:09:28.892Z,17.83
2022-11-24T19:11:57.447Z,17.67
2022-11-24T19:14:24.686Z,14.83
2022-11-24T19:16:52.027Z,15.90
2022-11-24T19:19:19.291Z,15.20
2022-11-24T19:21:46.507Z,15.53
2022-11-24T19:24:13.709Z,14.63
2022-11-24T19:26:41.066Z,15.97
2022-11-24T19:29:09.987Z,18.43
2022-11-24T19:31:38.039Z,17.80
2022-11-24T19:34:05.703Z,17.27
2022-11-24T19:36:32.904Z,16.77
2022-11-24T19:39:00.174Z,18.83
2022-11-24T19:41:29.824Z,15.50
2022-11-24T19:43:57.627Z,16.77
2022-11-24T19:46:28.055Z,17.10
2022-11-24T19:48:56.549Z,18.77
2022-11-24T19:51:25.282Z,19.10
2022-11-24T19:53:53.330Z,18.80
2022-11-24T19:56:22.389Z,17.60
2022-11-24T19:58:50.820Z,19.33
2022-11-24T20:01:20.397Z,20.10
2022-11-24T20:03:55.071Z,19.60
2022-11-24T20:06:22.329Z,19.80
2022-11-24T20:08:49.527Z,26.73
2022-11-24T20:11:18.413Z,21.20
2022-11-24T20:13:47.304Z,47.67
2022-11-24T20:16:16.087Z,22.33
2022-11-24T20:18:45.467Z,19.70
2022-11-24T20:21:15.936Z,24.37
2022-11-24T20:23:44.614Z,19.90
2022-11-24T20:26:13.741Z,22.43
2022-11-24T20:28:41.640Z,20.37
2022-11-24T20:31:11.604Z,20.60
2022-11-24T20:33:39.017Z,20.93
2022-11-24T20:36:07.970Z,20.63
2022-11-24T20:38:37.601Z,21.67
2022-11-24T20:41:09.189Z,21.10
2022-11-24T20:43:37.361Z,21.43
2022-11-24T20:46:07.127Z,20.47
2022-11-24T20:48:35.488Z,23.23
2022-11-24T20:51:03.708Z,22.17
2022-11-24T20:53:30.988Z,23.27
2022-11-24T20:56:06.116Z,23.73
2022-11-24T20:58:34.817Z,21.93
2022-11-24T21:01:06.360Z,21.60
2022-11-24T21:03:38.356Z,22.57
2022-11-24T21:06:09.090Z,22.63
2022-11-24T21:08:37.473Z,98.80
2022-11-24T21:11:07.069Z,35.43
2022-11-24T21:13:35.721Z,24.47
2022-11-24T21:16:11.848Z,21.07
2022-11-24T21:18:39.252Z,23.80
2022-11-24T21:21:07.076Z,23.80
2022-11-24T21:23:34.298Z,24.80
2022-11-24T21:26:05.554Z,24.80
2022-11-24T21:28:34.935Z,25.00
2022-11-24T21:31:06.054Z,25.97
2022-11-24T21:33:33.597Z,25.30
2022-11-24T21:36:01.637Z,23.67
2022-11-24T21:38:29.376Z,25.40
2022-11-24T21:40:59.527Z,26.73
2022-11-24T21:43:27.748Z,25.40
2022-11-24T21:46:00.450Z,27.80
2022-11-24T21:48:27.912Z,28.47
2022-11-24T21:50:57.527Z,29.40
2022-11-24T21:53:24.661Z,27.10
2022-11-24T21:55:55.494Z,27.60
2022-11-24T21:58:23.118Z,27.40
2022-11-24T22:00:50.827Z,24.80
2022-11-24T22:03:20.264Z,26.03
2022-11-24T22:05:58.030Z,26.30
2022-11-24T22:08:27.423Z,27.40
2022-11-24T22:11:00.565Z,25.97
2022-11-24T22:13:27.984Z,55.03
2022-11-24T22:16:06.713Z,50.80
2022-11-24T22:18:37.487Z,37.33
2022-11-24T22:21:06.517Z,25.80
2022-11-24T22:23:34.941Z,24.60
2022-11-24T22:26:02.989Z,24.60
2022-11-24T22:28:31.197Z,26.13
2022-11-24T22:30:58.404Z,24.37
2022-11-24T22:33:25.577Z,26.70
2022-11-24T22:35:57.469Z,26.50
2022-11-24T22:38:24.848Z,25.80
2022-11-24T22:40:52.179Z,25.43
2022-11-24T22:43:22.927Z,25.80
2022-11-24T22:45:50.558Z,28.33
2022-11-24T22:48:17.855Z,23.30
2022-11-24T22:50:45.088Z,28.00
2022-11-24T22:53:13.586Z,27.57
2022-11-24T22:55:40.847Z,26.27
2022-11-24T22:58:08.095Z,24.77
2022-11-24T23:00:35.300Z,27.40
2022-11-24T23:03:02.647Z,28.50
2022-11-24T23:05:32.653Z,27.37
2022-11-24T23:07:59.892Z,25.93
2022-11-24T23:10:28.496Z,30.90
2022-11-24T23:12:55.701Z,25.27
2022-11-24T23:15:22.844Z,26.40
2022-11-24T23:17:50.040Z,26.07
2022-11-24T23:20:17.386Z,26.30
2022-11-24T23:22:44.839Z,25.70
2022-11-24T23:25:12.049Z,26.10
2022-11-24T23:27:40.609Z,25.40
2022-11-24T23:30:08.673Z,25.90
2022-11-24T23:32:35.943Z,25.93
2022-11-24T23:35:03.347Z,23.30
2022-11-24T23:37:52.117Z,24.43
2022-11-24T23:40:17.946Z,23.47
2022-11-24T23:42:47.987Z,22.80
2022-11-24T23:45:15.365Z,22.10
2022-11-24T23:47:42.560Z,25.13
2022-11-24T23:50:10.268Z,20.87
2022-11-24T23:52:37.466Z,21.77
2022-11-24T23:55:05.660Z,24.10
2022-11-24T23:57:32.850Z,21.20
